Time;durP1;ratioP1;P1;durP2;ratioP2;P2;SDS_P1;SDS_P2;PMS_P1;PMS_P2;Temp;Humidity;BMP_temperature;BMP_pressure;BME280_temperature;BME280_humidity;BME280_pressure;Samples;Min_cycle;Max_cycle;Signal;HPM_P1;HPM_P2
2024/01/09 00:02:12;;;;;;;;;;;-4.20;99.90;;;;;;6773140;87;20199;-74
2024/01/09 00:12:12;;;;;;;;;;;-4.30;99.90;;;;;;6768520;87;20063;-75
2024/01/09 00:22:12;;;;;;;;;;;-4.40;99.90;;;;;;6764555;87;20077;-75
2024/01/09 00:32:13;;;;;;;;;;;-4.40;99.90;;;;;;6765381;87;20089;-75
2024/01/09 00:42:13;;;;;;;;;;;-4.30;99.90;;;;;;6768779;87;20081;-75
2024/01/09 00:52:14;;;;;;;;;;;-4.50;99.90;;;;;;6771327;87;20072;-75
2024/01/09 01:02:14;;;;;;;;;;;-4.50;99.90;;;;;;6765863;87;20087;-75
2024/01/09 01:12:15;;;;;;;;;;;-4.40;99.90;;;;;;6764177;87;20456;-75
2024/01/09 01:22:15;;;;;;;;;;;-4.60;99.90;;;;;;6765414;87;20113;-76
2024/01/09 01:32:16;;;;;;;;;;;-4.60;99.90;;;;;;6766622;87;20049;-76
2024/01/09 01:42:16;;;;;;;;;;;-4.60;99.90;;;;;;6764198;87;20193;-75
2024/01/09 01:52:17;;;;;;;;;;;-4.70;99.90;;;;;;6767742;87;20438;-76
2024/01/09 02:02:17;;;;;;;;;;;-4.70;99.90;;;;;;6776515;87;20061;-75
2024/01/09 02:12:18;;;;;;;;;;;-4.70;99.90;;;;;;6764078;87;20077;-75
2024/01/09 02:22:18;;;;;;;;;;;-4.80;99.90;;;;;;6765975;87;20090;-74
2024/01/09 02:32:19;;;;;;;;;;;-4.90;99.90;;;;;;6783203;87;20065;-75
2024/01/09 02:42:20;;;;;;;;;;;-5.00;99.90;;;;;;6770201;87;20081;-75
2024/01/09 02:52:20;;;;;;;;;;;-5.10;99.90;;;;;;6761431;87;20076;-75
2024/01/09 03:02:21;;;;;;;;;;;-5.20;99.90;;;;;;6761807;87;20071;-75
2024/01/09 03:12:21;;;;;;;;;;;-5.10;99.90;;;;;;6761659;87;20124;-75
2024/01/09 03:22:22;;;;;;;;;;;-5.10;99.90;;;;;;6761205;87;20069;-75
2024/01/09 03:32:22;;;;;;;;;;;-5.10;99.90;;;;;;6763950;87;20064;-74
2024/01/09 03:42:22;;;;;;;;;;;-5.30;99.90;;;;;;6769449;87;20095;-75
2024/01/09 03:52:23;;;;;;;;;;;-5.40;99.90;;;;;;6766467;76;20068;-76
2024/01/09 04:02:23;;;;;;;;;;;-5.10;99.90;;;;;;6768004;87;20059;-77
2024/01/09 04:12:24;;;;;;;;;;;-5.00;99.90;;;;;;6761608;87;20089;-77
2024/01/09 04:22:24;;;;;;;;;;;-5.10;99.90;;;;;;6763702;87;20561;-77
2024/01/09 04:32:25;;;;;;;;;;;-5.10;99.90;;;;;;6763102;87;20569;-77
2024/01/09 04:42:26;;;;;;;;;;;-5.10;99.90;;;;;;6764303;87;20378;-77
2024/01/09 04:52:26;;;;;;;;;;;-5.40;99.90;;;;;;6759303;87;20068;-77
2024/01/09 05:02:27;;;;;;;;;;;-5.30;99.90;;;;;;6752144;87;20135;-77
2024/01/09 05:12:27;;;;;;;;;;;-5.50;99.90;;;;;;6758415;87;20111;-77
2024/01/09 05:22:27;;;;;;;;;;;-5.80;99.90;;;;;;6765236;87;20146;-77
2024/01/09 05:32:28;;;;;;;;;;;-5.80;99.90;;;;;;6760795;87;20054;-77
2024/01/09 05:42:28;;;;;;;;;;;-5.90;99.90;;;;;;6762234;87;20065;-77
2024/01/09 05:52:29;;;;;;;;;;;-5.80;99.90;;;;;;6759602;87;20186;-78
2024/01/09 06:02:29;;;;;;;;;;;-6.00;99.90;;;;;;6760704;87;20128;-78
2024/01/09 06:12:30;;;;;;;;;;;-6.00;99.90;;;;;;6759697;87;20631;-79
2024/01/09 06:22:30;;;;;;;;;;;-6.10;99.90;;;;;;6764637;87;20054;-78
2024/01/09 06:32:31;;;;;;;;;;;-6.00;99.90;;;;;;6763388;87;20077;-78
2024/01/09 06:42:31;;;;;;;;;;;-6.20;99.90;;;;;;6767491;87;20053;-77
2024/01/09 06:52:31;;;;;;;;;;;-6.30;99.90;;;;;;6761950;87;20061;-76
2024/01/09 07:02:32;;;;;;;;;;;-6.40;99.90;;;;;;6757090;87;20053;-76
2024/01/09 07:12:32;;;;;;;;;;;-6.30;99.90;;;;;;6758917;87;20677;-77
2024/01/09 07:22:33;;;;;;;;;;;-6.30;99.90;;;;;;6764247;87;20596;-77
2024/01/09 07:32:33;;;;;;;;;;;-6.40;99.90;;;;;;6763978;87;20061;-77
2024/01/09 07:42:34;;;;;;;;;;;-6.50;99.90;;;;;;6764851;87;20052;-77
2024/01/09 07:52:34;;;;;;;;;;;-6.40;99.90;;;;;;6760369;87;20071;-77
2024/01/09 08:02:35;;;;;;;;;;;-6.30;99.90;;;;;;6755525;87;20070;-77
2024/01/09 08:12:35;;;;;;;;;;;-6.40;99.90;;;;;;6768736;87;20484;-77
2024/01/09 08:22:36;;;;;;;;;;;-6.20;99.90;;;;;;6765233;87;20141;-77
2024/01/09 08:32:37;;;;;;;;;;;-6.30;99.90;;;;;;6756168;87;20058;-77
2024/01/09 08:42:37;;;;;;;;;;;-6.10;99.90;;;;;;6759449;87;20598;-77
2024/01/09 08:52:38;;;;;;;;;;;-5.70;99.90;;;;;;6763856;87;20049;-77
2024/01/09 09:02:39;;;;;;;;;;;-5.10;99.90;;;;;;6762635;87;20049;-78
2024/01/09 09:12:39;;;;;;;;;;;-4.30;99.90;;;;;;6767142;87;20130;-77
2024/01/09 09:22:40;;;;;;;;;;;-4.00;99.90;;;;;;6757803;87;20631;-79
2024/01/09 09:32:40;;;;;;;;;;;-3.30;99.90;;;;;;6747053;87;20066;-78
2024/01/09 09:42:42;;;;;;;;;;;-2.60;99.90;;;;;;6753338;87;20071;-78
2024/01/09 10:02:50;;;;;;;;;;;-0.90;99.90;;;;;;6728887;88;20081;-79
2024/01/09 10:12:53;;;;;;;;;;;-0.60;99.90;;;;;;6733780;88;20046;-78
2024/01/09 10:22:54;;;;;;;;;;;-0.20;99.90;;;;;;6733241;88;20143;-78
2024/01/09 10:32:54;;;;;;;;;;;-0.40;99.90;;;;;;6734830;88;20174;-79
2024/01/09 10:42:55;;;;;;;;;;;1.10;99.90;;;;;;6732407;88;20047;-79
2024/01/09 10:52:55;;;;;;;;;;;1.20;99.90;;;;;;6735210;88;20110;-81
2024/01/09 11:02:56;;;;;;;;;;;2.70;98.40;;;;;;6741212;88;20075;-79
2024/01/09 11:12:57;;;;;;;;;;;2.20;98.00;;;;;;6751513;88;20031;-79
2024/01/09 11:22:58;;;;;;;;;;;3.20;97.90;;;;;;6749371;88;20047;-81
2024/01/09 11:33:18;;;;;;;;;;;2.90;97.10;;;;;;6750754;88;20632;-80
2024/01/09 11:43:18;;;;;;;;;;;4.30;96.20;;;;;;6752764;88;21874;-78
2024/01/09 11:53:19;;;;;;;;;;;4.80;93.10;;;;;;6754834;88;20055;-78
2024/01/09 12:03:19;;;;;;;;;;;4.80;93.80;;;;;;6755029;88;20630;-82
2024/01/09 12:13:20;;;;;;;;;;;5.90;91.80;;;;;;6754409;88;20022;-80
2024/01/09 12:23:21;;;;;;;;;;;5.80;91.50;;;;;;6752637;88;20060;-80
2024/01/09 12:33:21;;;;;;;;;;;6.50;90.50;;;;;;6752278;88;20019;-81
2024/01/09 12:43:22;;;;;;;;;;;6.60;90.40;;;;;;6748236;88;20044;-80
2024/01/09 12:53:23;;;;;;;;;;;6.10;91.30;;;;;;6745261;88;20057;-83
2024/01/09 13:03:24;;;;;;;;;;;5.90;91.00;;;;;;6751360;88;20046;-84
2024/01/09 13:13:24;;;;;;;;;;;8.10;89.10;;;;;;6751377;88;20144;-85
2024/01/09 13:23:25;;;;;;;;;;;8.50;86.10;;;;;;6747672;88;20117;-85
2024/01/09 13:33:25;;;;;;;;;;;6.30;90.30;;;;;;6751588;88;20747;-84
2024/01/09 13:43:26;;;;;;;;;;;8.20;85.60;;;;;;6751510;88;20100;-82
2024/01/09 13:53:26;;;;;;;;;;;9.00;84.30;;;;;;6752229;87;20245;-83
2024/01/09 14:03:30;;;;;;;;;;;9.00;84.50;;;;;;6751077;88;20137;-82
2024/01/09 14:13:30;;;;;;;;;;;8.80;82.50;;;;;;6751101;88;20117;-81
2024/01/09 14:23:31;;;;;;;;;;;8.20;84.30;;;;;;6751482;87;20183;-83
2024/01/09 14:33:32;;;;;;;;;;;7.30;86.20;;;;;;6751181;88;20045;-80
2024/01/09 14:43:33;;;;;;;;;;;7.40;86.10;;;;;;6748130;88;20090;-82
2024/01/09 14:53:34;;;;;;;;;;;6.30;88.20;;;;;;6749908;88;20158;-81
2024/01/09 15:03:35;;;;;;;;;;;5.20;89.90;;;;;;6741060;88;20157;-81
2024/01/09 15:13:36;;;;;;;;;;;4.70;90.00;;;;;;6741936;88;20145;-80
2024/01/09 15:23:37;;;;;;;;;;;3.70;90.10;;;;;;6735024;88;20035;-78
2024/01/09 15:33:37;;;;;;;;;;;3.00;91.20;;;;;;6741803;88;20065;-79
2024/01/09 15:43:37;;;;;;;;;;;2.20;91.50;;;;;;6722217;88;20592;-78
2024/01/09 15:53:40;;;;;;;;;;;2.00;90.30;;;;;;6736786;76;20067;-77
2024/01/09 16:03:40;;;;;;;;;;;1.60;87.90;;;;;;6708461;88;20076;-75
2024/01/09 16:13:41;;;;;;;;;;;1.60;83.10;;;;;;6690943;88;20190;-78
2024/01/09 16:23:41;;;;;;;;;;;1.50;80.30;;;;;;6692566;88;20200;-75
2024/01/09 16:33:43;;;;;;;;;;;1.40;81.00;;;;;;6699966;88;20071;-77
2024/01/09 16:43:44;;;;;;;;;;;1.30;79.70;;;;;;6701033;88;20240;-77
2024/01/09 16:53:44;;;;;;;;;;;1.20;78.80;;;;;;6709763;88;20086;-75
2024/01/09 17:03:45;;;;;;;;;;;1.10;79.10;;;;;;6734023;88;20286;-74
2024/01/09 17:13:45;;;;;;;;;;;0.80;80.40;;;;;;6742195;88;20058;-76
2024/01/09 17:23:46;;;;;;;;;;;0.20;87.00;;;;;;6734761;88;20083;-77
2024/01/09 17:33:46;;;;;;;;;;;-0.10;89.30;;;;;;6737068;88;20080;-76
2024/01/09 17:43:47;;;;;;;;;;;-0.40;89.90;;;;;;6734922;88;20518;-76
2024/01/09 17:53:47;;;;;;;;;;;-0.70;92.00;;;;;;6725937;88;20086;-77
2024/01/09 18:03:48;;;;;;;;;;;-0.90;93.60;;;;;;6737955;88;20083;-78
2024/01/09 18:13:51;;;;;;;;;;;-1.40;95.00;;;;;;6732276;88;20079;-78
2024/01/09 18:23:52;;;;;;;;;;;-1.60;94.50;;;;;;6733505;88;20069;-77
2024/01/09 18:33:53;;;;;;;;;;;-1.70;93.80;;;;;;6726805;88;20062;-77
2024/01/09 18:43:53;;;;;;;;;;;-1.40;91.40;;;;;;6729658;88;20059;-78
2024/01/09 18:53:57;;;;;;;;;;;-1.70;94.40;;;;;;6729545;88;20047;-77
2024/01/09 19:03:57;;;;;;;;;;;-1.80;96.20;;;;;;6727592;88;20088;-77
2024/01/09 19:13:58;;;;;;;;;;;-2.20;96.90;;;;;;6730445;88;20059;-77
2024/01/09 19:23:58;;;;;;;;;;;-2.50;99.30;;;;;;6726685;88;20069;-77
2024/01/09 19:33:59;;;;;;;;;;;-2.70;99.90;;;;;;6727541;88;20552;-76
2024/01/09 19:43:59;;;;;;;;;;;-2.90;99.90;;;;;;6730468;88;20112;-77
2024/01/09 19:54:00;;;;;;;;;;;-3.20;99.90;;;;;;6726259;88;20185;-77
2024/01/09 20:04:00;;;;;;;;;;;-3.30;99.90;;;;;;6731816;88;20062;-77
2024/01/09 20:14:01;;;;;;;;;;;-3.50;99.90;;;;;;6729745;88;20539;-77
2024/01/09 20:24:02;;;;;;;;;;;-3.50;99.90;;;;;;6727876;88;20070;-76
2024/01/09 20:34:02;;;;;;;;;;;-3.40;99.90;;;;;;6726233;88;20079;-75
2024/01/09 20:44:04;;;;;;;;;;;-3.50;99.90;;;;;;6730752;88;20159;-76
2024/01/09 20:54:08;;;;;;;;;;;-4.00;99.90;;;;;;6729695;88;20104;-76
2024/01/09 21:04:10;;;;;;;;;;;-4.10;99.90;;;;;;6727124;88;20221;-77
2024/01/09 21:14:11;;;;;;;;;;;-4.30;99.90;;;;;;6730839;88;20132;-75
2024/01/09 21:24:11;;;;;;;;;;;-4.30;99.90;;;;;;6732163;88;20689;-75
2024/01/09 21:34:13;;;;;;;;;;;-4.60;99.90;;;;;;6733719;88;20062;-75
2024/01/09 21:44:14;;;;;;;;;;;-4.60;99.90;;;;;;6727294;88;20058;-76
2024/01/09 21:54:14;;;;;;;;;;;-4.80;99.90;;;;;;6732643;88;20782;-75
2024/01/09 22:04:15;;;;;;;;;;;-5.00;99.90;;;;;;6725990;88;20139;-75
2024/01/09 22:14:15;;;;;;;;;;;-5.20;99.90;;;;;;6727486;88;20135;-75
2024/01/09 22:24:15;;;;;;;;;;;-5.40;99.90;;;;;;6731905;88;20160;-75
2024/01/09 22:34:16;;;;;;;;;;;-5.40;99.90;;;;;;6729018;88;20057;-74
2024/01/09 22:44:17;;;;;;;;;;;-5.40;99.90;;;;;;6730851;88;20195;-74
2024/01/09 22:54:17;;;;;;;;;;;-5.60;99.90;;;;;;6731175;88;20097;-74
2024/01/09 23:04:18;;;;;;;;;;;-5.60;99.90;;;;;;6727772;88;20059;-74
2024/01/09 23:14:18;;;;;;;;;;;-5.70;99.90;;;;;;6728220;88;20480;-74
2024/01/09 23:24:18;;;;;;;;;;;-5.80;99.90;;;;;;6728578;88;20655;-76
2024/01/09 23:34:19;;;;;;;;;;;-5.80;99.90;;;;;;6728226;88;20123;-75
2024/01/09 23:44:19;;;;;;;;;;;-5.60;99.90;;;;;;6726511;88;20103;-74
2024/01/09 23:54:20;;;;;;;;;;;-5.90;99.90;;;;;;6732926;88;20058;-74
